Time;durP1;ratioP1;P1;durP2;ratioP2;P2;SDS_P1;SDS_P2;PMS_P1;PMS_P2;Temp;Humidity;BMP_temperature;BMP_pressure;BME280_temperature;BME280_humidity;BME280_pressure;Samples;Min_cycle;Max_cycle;Signal;HPM_P1;HPM_P2
2023/06/15 00:00:42;;;;;;;3.65;2.40;;;;;;;20.90;52.59;101821.97;4967487;28;20054;-65
2023/06/15 00:03:09;;;;;;;5.03;2.40;;;;;;;20.97;51.43;101830.84;4960696;28;20055;-65
2023/06/15 00:05:36;;;;;;;2.83;2.50;;;;;;;20.98;52.00;101824.50;4970732;28;20165;-66
2023/06/15 00:08:03;;;;;;;2.47;1.98;;;;;;;21.03;51.34;101824.78;4959671;28;20153;-66
2023/06/15 00:10:29;;;;;;;4.20;3.00;;;;;;;21.06;51.49;101821.72;4983336;28;20572;-65
2023/06/15 00:12:56;;;;;;;6.50;3.13;;;;;;;21.02;51.70;101823.13;4971997;28;20050;-66
2023/06/15 00:15:22;;;;;;;6.22;3.13;;;;;;;21.03;51.73;101826.59;4963329;28;20056;-66
2023/06/15 00:17:49;;;;;;;5.30;2.83;;;;;;;21.01;51.86;101828.63;4968046;28;20170;-67
2023/06/15 00:20:16;;;;;;;5.22;2.80;;;;;;;20.96;52.02;101825.72;4949972;28;20066;-66
2023/06/15 00:22:45;;;;;;;7.00;3.38;;;;;;;20.87;52.72;101827.69;4979626;28;20059;-66
2023/06/15 00:25:12;;;;;;;4.53;2.90;;;;;;;20.85;52.95;101829.72;4970101;28;20106;-66
2023/06/15 00:27:39;;;;;;;4.85;3.20;;;;;;;20.80;52.58;101819.63;4980192;28;20619;-65
2023/06/15 00:30:09;;;;;;;5.13;2.75;;;;;;;20.79;53.78;101830.47;4975640;28;20051;-67
2023/06/15 00:32:36;;;;;;;4.47;2.55;;;;;;;20.77;54.00;101825.31;4955005;28;20345;-66
2023/06/15 00:35:02;;;;;;;5.18;3.00;;;;;;;20.72;54.53;101825.91;4965105;28;20043;-65
2023/06/15 00:37:29;;;;;;;4.15;3.08;;;;;;;20.69;54.52;101834.28;4964897;28;20046;-67
2023/06/15 00:39:56;;;;;;;6.13;3.15;;;;;;;20.65;55.34;101838.31;4957047;28;20050;-67
2023/06/15 00:42:22;;;;;;;6.85;3.40;;;;;;;20.68;54.86;101829.97;4969459;28;20051;-67
2023/06/15 00:44:48;;;;;;;5.68;3.22;;;;;;;20.64;56.36;101833.19;4970353;28;20361;-67
2023/06/15 00:47:19;;;;;;;6.20;3.22;;;;;;;20.62;55.95;101836.06;4963072;28;20059;-65
2023/06/15 00:49:45;;;;;;;10.90;3.45;;;;;;;20.59;57.02;101836.41;4965197;28;20491;-65
2023/06/15 00:52:14;;;;;;;5.45;3.08;;;;;;;20.53;57.58;101839.81;4971632;28;20510;-65
2023/06/15 00:54:43;;;;;;;7.45;3.45;;;;;;;20.55;57.66;101848.44;4961868;28;20046;-66
2023/06/15 00:57:10;;;;;;;8.35;3.38;;;;;;;20.50;58.49;101850.84;4966264;28;20070;-67
2023/06/15 00:59:38;;;;;;;6.38;3.67;;;;;;;20.42;59.02;101846.44;4959358;28;20150;-66
2023/06/15 01:02:04;;;;;;;10.43;4.25;;;;;;;20.39;59.57;101844.16;4965666;28;20046;-66
2023/06/15 01:04:31;;;;;;;6.80;4.05;;;;;;;20.34;60.23;101850.03;4967428;28;20081;-66
2023/06/15 01:07:02;;;;;;;7.38;3.60;;;;;;;20.33;59.92;101850.25;4970285;28;20176;-66
2023/06/15 01:09:32;;;;;;;6.68;3.55;;;;;;;20.27;61.56;101853.66;4967262;28;20070;-67
2023/06/15 01:12:05;;;;;;;7.80;3.80;;;;;;;20.26;61.49;101850.13;4964512;28;20046;-65
2023/06/15 01:14:32;;;;;;;7.38;3.75;;;;;;;20.22;61.79;101851.53;4961887;28;20146;-66
2023/06/15 01:17:05;;;;;;;8.25;3.70;;;;;;;20.18;62.52;101860.06;4958779;28;20061;-67
2023/06/15 01:22:58;;;;;;;;;;;;;;;20.12;63.18;101850.97;4970381;28;20054;-66
2023/06/15 01:25:40;;;;;;;5.97;3.65;;;;;;;20.04;64.48;101843.09;4969422;28;19976;-66
2023/06/15 01:28:10;;;;;;;6.05;4.18;;;;;;;19.97;64.67;101843.00;4964892;28;20053;-66
2023/06/15 01:30:48;;;;;;;9.57;4.38;;;;;;;19.95;65.08;101848.53;4974930;28;20046;-66
2023/06/15 01:33:15;;;;;;;6.53;3.85;;;;;;;19.91;65.60;101847.22;4967669;28;20067;-67
2023/06/15 01:35:42;;;;;;;6.00;3.70;;;;;;;19.94;64.85;101851.34;4947813;28;20043;-66
2023/06/15 01:38:10;;;;;;;7.18;3.90;;;;;;;19.93;65.73;101847.03;4975455;28;20456;-67
2023/06/15 01:40:38;;;;;;;7.30;3.53;;;;;;;19.89;66.57;101851.06;4963763;28;20088;-66
2023/06/15 01:43:06;;;;;;;;;;;;;;;19.88;66.65;101849.44;4950540;28;20320;-67
2023/06/15 01:45:35;;;;;;;7.30;3.88;;;;;;;19.85;66.79;101852.44;4966892;28;19972;-65
2023/06/15 01:48:02;;;;;;;5.95;3.78;;;;;;;19.80;66.67;101854.81;4981642;28;20137;-66
2023/06/15 01:50:32;;;;;;;8.52;4.13;;;;;;;19.75;67.53;101848.22;4965397;28;20065;-67
2023/06/15 01:52:58;;;;;;;7.15;3.95;;;;;;;19.72;68.27;101853.09;4960011;28;20081;-66
2023/06/15 01:55:25;;;;;;;7.85;4.20;;;;;;;19.64;69.12;101845.97;4969263;28;20113;-66
2023/06/15 01:57:53;;;;;;;8.00;4.00;;;;;;;19.63;68.98;101846.16;4974839;28;20478;-65
2023/06/15 02:00:21;;;;;;;6.93;3.90;;;;;;;19.60;69.67;101846.50;4966328;28;20284;-67
2023/06/15 02:02:48;;;;;;;8.50;4.00;;;;;;;19.54;70.59;101846.25;4965171;28;20376;-65
2023/06/15 02:05:15;;;;;;;7.80;3.70;;;;;;;19.51;70.97;101843.13;4960869;28;20055;-66
2023/06/15 02:07:42;;;;;;;5.50;4.15;;;;;;;19.48;71.02;101854.09;4962109;28;20902;-65
2023/06/15 02:10:09;;;;;;;11.07;4.65;;;;;;;19.47;71.77;101842.63;4955238;28;20055;-67
2023/06/15 02:12:36;;;;;;;6.43;4.10;;;;;;;19.45;71.78;101843.84;4975516;28;20562;-65
2023/06/15 02:15:03;;;;;;;6.25;3.90;;;;;;;19.41;72.38;101845.22;4971258;28;20050;-65
2023/06/15 02:17:38;;;;;;;5.03;3.40;;;;;;;19.41;71.47;101845.22;4973619;28;20054;-67
2023/06/15 02:20:07;;;;;;;6.35;4.40;;;;;;;19.41;72.59;101847.88;4957187;28;20059;-68
2023/06/15 02:22:34;;;;;;;9.82;4.63;;;;;;;19.36;73.48;101849.22;4957925;28;20667;-66
2023/06/15 02:25:00;;;;;;;7.75;4.18;;;;;;;19.32;73.91;101842.59;4966961;28;20054;-67
2023/06/15 02:27:27;;;;;;;8.30;4.07;;;;;;;19.31;74.28;101854.25;4964446;28;20496;-67
2023/06/15 02:29:53;;;;;;;5.63;3.58;;;;;;;19.31;74.33;101853.44;4965923;28;20706;-67
2023/06/15 02:32:48;;;;;;;7.53;4.45;;;;;;;19.27;74.71;101852.97;4966145;28;20078;-68
2023/06/15 02:35:15;;;;;;;10.57;4.10;;;;;;;19.28;73.99;101857.25;4952867;28;20097;-68
2023/06/15 02:37:42;;;;;;;6.07;4.03;;;;;;;19.27;75.18;101860.94;4956693;28;20551;-68
2023/06/15 02:40:08;;;;;;;6.55;4.30;;;;;;;19.22;75.84;101857.16;4969253;28;20121;-67
2023/06/15 02:42:36;;;;;;;7.35;4.28;;;;;;;19.22;74.65;101862.47;4962994;28;20127;-68
2023/06/15 02:45:06;;;;;;;6.97;4.25;;;;;;;19.23;75.42;101859.66;4965669;28;20094;-67
2023/06/15 02:47:33;;;;;;;8.07;4.10;;;;;;;19.21;74.99;101859.00;4965573;28;20054;-68
2023/06/15 02:50:00;;;;;;;8.10;4.10;;;;;;;19.19;75.16;101855.69;4955418;28;20055;-67
2023/06/15 02:52:30;;;;;;;6.65;4.28;;;;;;;19.20;75.50;101853.84;4967398;28;20145;-67
2023/06/15 02:54:58;;;;;;;7.95;4.03;;;;;;;19.21;74.82;101858.16;4960770;28;20809;-67
2023/06/15 02:57:24;;;;;;;13.68;4.32;;;;;;;19.19;74.38;101858.34;4969929;28;20083;-67
2023/06/15 02:59:51;;;;;;;6.22;3.80;;;;;;;19.19;75.89;101857.50;4961689;28;20134;-67
2023/06/15 03:02:20;;;;;;;7.18;4.13;;;;;;;19.17;75.98;101858.53;4965977;28;20054;-68
2023/06/15 03:04:48;;;;;;;8.70;4.30;;;;;;;19.14;76.21;101861.53;4962916;28;20059;-67
2023/06/15 03:07:20;;;;;;;7.95;4.15;;;;;;;19.13;76.75;101861.69;4962053;28;20162;-67
2023/06/15 03:09:47;;;;;;;7.45;3.88;;;;;;;19.11;76.11;101858.38;4963783;28;20787;-68
2023/06/15 03:12:15;;;;;;;7.38;4.10;;;;;;;19.11;75.84;101856.59;4962780;28;20471;-68
2023/06/15 03:14:49;;;;;;;8.05;4.57;;;;;;;19.13;76.02;101859.03;4969852;28;20069;-67
2023/06/15 03:17:17;;;;;;;8.75;3.95;;;;;;;19.09;76.13;101858.59;4957264;28;20105;-68
2023/06/15 03:19:46;;;;;;;7.47;3.90;;;;;;;19.03;76.30;101853.97;4967907;28;20039;-67
2023/06/15 03:22:13;;;;;;;8.38;3.95;;;;;;;19.05;75.67;101859.94;4959062;28;20271;-68
2023/06/15 03:24:41;;;;;;;7.63;4.20;;;;;;;19.03;76.26;101861.94;4973418;28;20672;-67
2023/06/15 03:27:10;;;;;;;9.82;4.60;;;;;;;18.95;78.23;101851.34;4975390;28;20101;-67
2023/06/15 03:29:37;;;;;;;9.85;4.10;;;;;;;18.93;77.19;101856.88;4967987;28;20082;-67
2023/06/15 03:32:08;;;;;;;7.68;4.47;;;;;;;18.93;77.07;101853.38;4974342;28;20042;-68
2023/06/15 03:34:35;;;;;;;8.93;3.97;;;;;;;18.92;78.31;101859.69;4966042;28;20046;-67
2023/06/15 03:37:02;;;;;;;5.50;4.18;;;;;;;18.88;78.14;101858.41;4971978;28;20046;-67
2023/06/15 03:39:28;;;;;;;8.95;3.88;;;;;;;18.88;78.30;101863.72;4957349;28;20047;-67
2023/06/15 03:41:55;;;;;;;9.38;4.32;;;;;;;18.84;78.97;101860.59;4964588;28;20049;-68
2023/06/15 03:44:21;;;;;;;12.23;4.60;;;;;;;18.80;79.99;101863.75;4964107;28;20074;-67
2023/06/15 03:46:48;;;;;;;9.65;4.28;;;;;;;18.79;79.72;101870.88;4965823;28;20073;-67
2023/06/15 03:49:15;;;;;;;8.15;4.80;;;;;;;18.75;79.60;101866.91;4982342;28;20503;-67
2023/06/15 03:51:42;;;;;;;10.63;4.32;;;;;;;18.75;78.19;101869.56;4971901;28;20059;-67
2023/06/15 03:54:08;;;;;;;9.23;4.40;;;;;;;18.68;80.53;101872.09;4978955;28;20054;-67
2023/06/15 03:56:35;;;;;;;8.48;4.78;;;;;;;18.67;80.34;101877.59;4969867;28;20051;-67
2023/06/15 03:59:01;;;;;;;7.38;4.68;;;;;;;18.62;80.19;101864.84;4971883;28;20134;-68
2023/06/15 04:01:28;;;;;;;10.05;5.30;;;;;;;18.60;80.89;101872.13;4972768;28;20190;-68
2023/06/15 04:03:54;;;;;;;8.27;4.82;;;;;;;18.58;80.37;101867.00;4960202;28;20134;-67
2023/06/15 04:06:21;;;;;;;6.40;4.10;;;;;;;18.60;80.45;101872.13;4969977;28;20066;-67
2023/06/15 04:08:48;;;;;;;5.78;4.30;;;;;;;18.60;80.41;101871.31;4965335;28;20085;-67
2023/06/15 04:11:15;;;;;;;8.45;4.43;;;;;;;18.61;79.65;101872.97;4969476;28;20120;-67
2023/06/15 04:13:42;;;;;;;9.48;4.25;;;;;;;18.63;79.98;101873.63;4962847;28;20137;-67
2023/06/15 04:16:08;;;;;;;7.47;4.43;;;;;;;18.64;79.79;101873.47;4948008;28;20524;-67
2023/06/15 04:18:35;;;;;;;10.63;4.22;;;;;;;18.65;78.35;101875.09;4969750;28;20075;-67
2023/06/15 04:21:02;;;;;;;6.32;4.20;;;;;;;18.71;78.06;101873.56;4964669;28;20086;-67
2023/06/15 04:23:29;;;;;;;9.98;4.28;;;;;;;18.75;78.62;101874.88;4967208;28;20093;-66
2023/06/15 04:25:58;;;;;;;8.55;4.50;;;;;;;18.75;79.72;101878.34;4958231;28;20121;-67
2023/06/15 04:28:24;;;;;;;9.05;4.93;;;;;;;18.78;79.59;101878.03;4960709;28;20054;-67
2023/06/15 04:31:10;;;;;;;7.18;4.90;;;;;;;18.82;78.90;101875.88;4967651;28;20769;-69
2023/06/15 04:33:42;;;;;;;12.38;7.30;;;;;;;18.79;80.00;101878.84;4964810;28;20050;-67
2023/06/15 04:36:12;;;;;;;8.75;5.93;;;;;;;18.83;78.40;101885.50;4967022;28;20106;-68
2023/06/15 04:38:46;;;;;;;9.65;5.00;;;;;;;18.83;79.79;101880.19;4967491;28;20051;-67
2023/06/15 04:41:14;;;;;;;6.78;4.65;;;;;;;18.83;79.87;101888.16;4962048;28;20145;-67
2023/06/15 04:43:41;;;;;;;10.25;4.20;;;;;;;18.87;78.97;101885.97;4963752;28;20057;-67
2023/06/15 04:46:08;;;;;;;6.53;4.35;;;;;;;18.88;78.51;101887.66;4973314;28;20134;-67
2023/06/15 04:48:35;;;;;;;8.63;4.22;;;;;;;18.91;78.99;101889.94;4966566;28;20838;-67
2023/06/15 04:51:01;;;;;;;7.55;3.92;;;;;;;18.91;78.08;101893.41;4967206;28;20139;-67
2023/06/15 04:53:28;;;;;;;8.98;4.10;;;;;;;18.95;76.97;101900.06;4971723;28;20514;-68
2023/06/15 04:55:54;;;;;;;8.35;4.70;;;;;;;18.97;77.30;101891.88;4957621;28;20039;-67
2023/06/15 04:58:21;;;;;;;10.13;4.93;;;;;;;18.96;77.68;101896.38;4977402;28;20190;-67
2023/06/15 05:00:47;;;;;;;5.72;3.63;;;;;;;18.99;75.82;101895.19;4971426;28;20761;-68
2023/06/15 05:03:13;;;;;;;8.50;4.65;;;;;;;19.01;77.50;101903.00;4967983;28;20082;-67
2023/06/15 05:05:40;;;;;;;9.35;4.47;;;;;;;19.03;76.65;101896.50;4954319;28;20553;-66
2023/06/15 05:08:07;;;;;;;11.15;4.88;;;;;;;19.08;76.41;101902.13;4967766;28;20507;-66
2023/06/15 05:10:33;;;;;;;8.88;4.30;;;;;;;19.09;76.80;101898.47;4966095;28;20149;-66
2023/06/15 05:13:12;;;;;;;8.32;4.50;;;;;;;19.11;77.04;101906.25;4960218;28;20055;-66
2023/06/15 05:15:38;;;;;;;8.10;4.90;;;;;;;19.12;78.15;101906.09;4980216;28;20550;-66
2023/06/15 05:18:05;;;;;;;9.35;4.38;;;;;;;19.10;78.10;101907.28;4975050;28;20133;-66
2023/06/15 05:20:31;;;;;;;12.50;4.78;;;;;;;19.13;78.02;101909.56;4976077;28;20423;-66
2023/06/15 05:22:58;;;;;;;8.95;4.60;;;;;;;19.13;78.18;101912.22;4976097;28;20081;-66
2023/06/15 05:25:24;;;;;;;8.63;4.68;;;;;;;19.14;77.59;101905.91;4968218;28;20093;-66
2023/06/15 05:27:51;;;;;;;7.20;4.47;;;;;;;19.21;78.14;101904.22;4962007;28;20529;-66
2023/06/15 05:30:18;;;;;;;10.90;5.10;;;;;;;19.22;78.43;101908.50;4960997;28;20137;-66
2023/06/15 05:32:44;;;;;;;8.45;4.75;;;;;;;19.27;78.22;101914.13;4965798;28;20109;-67
2023/06/15 05:35:11;;;;;;;11.38;4.78;;;;;;;19.29;78.76;101909.47;4955484;28;20508;-66
2023/06/15 05:37:37;;;;;;;7.88;4.35;;;;;;;19.30;77.96;101904.97;4964986;28;20120;-66
2023/06/15 05:40:04;;;;;;;9.07;4.78;;;;;;;19.38;77.33;101914.72;4965875;28;20097;-66
2023/06/15 05:42:32;;;;;;;13.27;4.97;;;;;;;19.39;77.67;101914.56;4968877;28;20042;-66
2023/06/15 05:44:58;;;;;;;8.65;5.20;;;;;;;19.43;78.12;101915.03;4962605;28;20487;-66
2023/06/15 05:47:25;;;;;;;9.75;4.70;;;;;;;19.48;78.15;101915.31;4958125;28;20141;-66
2023/06/15 05:49:51;;;;;;;9.40;5.03;;;;;;;19.52;79.08;101922.78;4965905;28;20050;-66
2023/06/15 05:52:19;;;;;;;11.43;4.80;;;;;;;19.64;76.46;101919.66;4958397;28;20504;-67
2023/06/15 05:54:45;;;;;;;7.35;4.60;;;;;;;19.65;77.22;101924.00;4971888;28;20565;-66
2023/06/15 05:57:13;;;;;;;8.90;5.13;;;;;;;19.67;76.34;101920.13;4959679;28;20058;-66
2023/06/15 05:59:40;;;;;;;10.70;4.43;;;;;;;19.74;75.01;101925.63;4963189;28;20161;-66
2023/06/15 06:02:07;;;;;;;9.38;5.15;;;;;;;19.74;76.55;101918.44;4965008;28;20138;-67
2023/06/15 06:04:34;;;;;;;9.48;4.82;;;;;;;19.78;73.91;101923.38;4962071;28;20099;-67
2023/06/15 06:07:05;;;;;;;13.15;5.30;;;;;;;19.83;75.27;101926.34;4971524;28;20050;-67
2023/06/15 06:09:33;;;;;;;8.73;4.93;;;;;;;19.85;75.43;101921.66;4968090;28;20047;-67
2023/06/15 06:12:01;;;;;;;9.98;5.18;;;;;;;19.90;75.17;101925.44;4961031;28;20058;-67
2023/06/15 06:14:28;;;;;;;8.75;5.20;;;;;;;19.92;73.79;101926.09;4954380;28;20054;-67
2023/06/15 06:16:57;;;;;;;13.65;5.50;;;;;;;19.92;71.53;101925.28;4956540;28;20083;-69
2023/06/15 06:19:24;;;;;;;9.25;5.35;;;;;;;19.96;72.51;101923.91;4945600;28;20054;-67
2023/06/15 06:21:50;;;;;;;11.70;5.00;;;;;;;20.03;71.23;101929.31;4960216;28;20515;-67
2023/06/15 06:24:18;;;;;;;9.25;4.47;;;;;;;20.08;70.32;101918.94;4961892;28;20821;-67
2023/06/15 06:26:49;;;;;;;10.23;5.47;;;;;;;20.12;70.51;101928.22;4958000;28;20050;-67
2023/06/15 06:29:15;;;;;;;12.60;5.97;;;;;;;20.13;70.20;101925.38;4969276;28;20074;-67
2023/06/15 06:31:42;;;;;;;12.20;6.10;;;;;;;20.14;69.57;101918.22;4963347;28;20734;-67
2023/06/15 06:34:10;;;;;;;7.63;5.63;;;;;;;20.19;68.85;101918.50;4967560;28;20479;-67
2023/06/15 06:36:40;;;;;;;9.35;5.47;;;;;;;20.22;70.10;101923.44;4970444;28;20098;-67
2023/06/15 06:39:07;;;;;;;9.80;5.13;;;;;;;20.25;69.92;101912.44;4959808;28;20055;-68
2023/06/15 06:41:35;;;;;;;9.27;5.40;;;;;;;20.30;69.96;101903.88;4942384;28;20111;-68
2023/06/15 06:44:02;;;;;;;9.82;5.65;;;;;;;20.31;71.20;101921.53;4963654;28;20101;-68
2023/06/15 06:46:28;;;;;;;10.70;5.47;;;;;;;20.38;70.62;101913.63;4963544;28;20047;-67
2023/06/15 06:48:55;;;;;;;9.82;5.95;;;;;;;20.42;69.63;101925.56;4958146;28;20086;-68
2023/06/15 06:51:21;;;;;;;8.80;5.38;;;;;;;20.47;69.23;101917.84;4963587;28;20046;-67
2023/06/15 06:53:49;;;;;;;9.25;5.30;;;;;;;20.59;69.01;101923.53;4964469;28;20046;-68
2023/06/15 06:56:19;;;;;;;10.25;5.90;;;;;;;20.65;70.36;101928.16;4939290;28;20439;-69
2023/06/15 06:58:45;;;;;;;10.88;5.97;;;;;;;20.73;68.50;101931.53;4957104;28;20149;-67
2023/06/15 07:01:12;;;;;;;12.82;6.53;;;;;;;20.76;69.70;101929.50;4958842;28;20054;-68
2023/06/15 07:03:39;;;;;;;9.20;5.13;;;;;;;20.83;68.59;101931.22;4974711;28;20110;-69
2023/06/15 07:06:06;;;;;;;9.23;5.33;;;;;;;20.90;66.80;101929.47;4943146;28;20058;-68
2023/06/15 07:08:32;;;;;;;11.15;5.85;;;;;;;20.97;68.84;101924.19;4969437;28;20291;-67
2023/06/15 07:11:01;;;;;;;9.55;6.15;;;;;;;20.99;68.86;101929.34;4945382;28;20051;-68
2023/06/15 07:13:29;;;;;;;12.30;5.32;;;;;;;21.03;68.15;101928.81;4958338;28;20046;-65
2023/06/15 07:15:57;;;;;;;11.53;6.10;;;;;;;21.08;67.20;101931.72;4968268;28;20110;-67
2023/06/15 07:18:25;;;;;;;10.85;6.15;;;;;;;21.10;68.76;101931.53;4959154;28;20058;-66
2023/06/15 07:20:54;;;;;;;12.60;6.85;;;;;;;21.14;67.48;101935.47;4963302;28;20134;-67
2023/06/15 07:23:22;;;;;;;17.45;6.70;;;;;;;21.17;66.97;101936.91;4954189;28;20484;-66
2023/06/15 07:25:50;;;;;;;10.52;5.50;;;;;;;21.20;66.43;101940.03;4970419;28;20046;-66
2023/06/15 07:28:17;;;;;;;10.60;5.63;;;;;;;21.24;67.17;101924.47;4964459;28;20080;-66
2023/06/15 07:30:46;;;;;;;9.43;5.10;;;;;;;21.35;66.31;101940.00;4964145;28;20066;-67
2023/06/15 07:33:12;;;;;;;11.15;6.32;;;;;;;21.38;65.84;101931.59;4937717;28;20055;-67
2023/06/15 07:35:39;;;;;;;9.60;5.68;;;;;;;21.51;64.99;101933.59;4954872;28;20404;-68
2023/06/15 07:38:06;;;;;;;8.93;5.53;;;;;;;21.55;65.46;101931.38;4963265;28;20424;-67
2023/06/15 07:40:32;;;;;;;11.73;6.28;;;;;;;21.58;64.96;101931.81;4959326;28;20492;-68
2023/06/15 07:42:59;;;;;;;12.15;6.55;;;;;;;21.65;64.45;101929.19;4964576;28;20078;-68
2023/06/15 07:45:26;;;;;;;10.27;6.45;;;;;;;21.70;65.12;101934.78;4967025;28;20126;-68
2023/06/15 07:47:52;;;;;;;11.23;5.95;;;;;;;21.78;64.71;101936.47;4958182;28;20192;-68
2023/06/15 07:50:19;;;;;;;9.30;6.45;;;;;;;21.84;64.83;101936.53;4965195;28;20046;-68
2023/06/15 07:52:46;;;;;;;12.88;5.70;;;;;;;21.90;64.43;101935.75;4961517;28;20051;-67
2023/06/15 07:55:12;;;;;;;9.07;5.88;;;;;;;21.96;64.25;101928.81;4966971;28;20051;-67
2023/06/15 07:57:39;;;;;;;13.40;5.80;;;;;;;22.02;63.37;101935.22;4959079;28;20095;-67
2023/06/15 08:00:06;;;;;;;9.88;6.22;;;;;;;22.08;63.89;101934.44;4960894;28;20471;-68
2023/06/15 08:02:32;;;;;;;6.88;4.65;;;;;;;22.19;62.67;101933.91;4966447;28;20051;-67
2023/06/15 08:05:00;;;;;;;19.83;6.97;;;;;;;22.27;62.11;101933.75;4961076;28;20042;-68
2023/06/15 08:07:27;;;;;;;10.95;6.30;;;;;;;22.29;62.31;101937.06;4974409;28;20078;-68
2023/06/15 08:09:53;;;;;;;10.13;6.17;;;;;;;22.42;62.21;101943.50;4960967;28;20055;-65
2023/06/15 08:12:20;;;;;;;8.27;5.47;;;;;;;22.44;61.10;101934.28;4971678;28;20345;-66
2023/06/15 08:14:46;;;;;;;8.63;5.45;;;;;;;22.56;60.70;101933.69;4958499;28;20089;-66
2023/06/15 08:17:13;;;;;;;10.02;5.68;;;;;;;22.60;59.54;101932.25;4950988;28;20057;-66
2023/06/15 08:19:39;;;;;;;9.40;5.65;;;;;;;22.70;60.04;101932.75;4967366;28;20047;-67
2023/06/15 08:22:06;;;;;;;12.02;5.93;;;;;;;22.77;59.16;101932.75;4965357;28;20086;-66
2023/06/15 08:24:32;;;;;;;13.27;4.95;;;;;;;22.90;57.88;101927.44;4971879;28;20053;-65
2023/06/15 08:27:00;;;;;;;9.73;4.70;;;;;;;23.02;57.91;101931.22;4960185;28;20061;-66
2023/06/15 08:29:26;;;;;;;9.25;4.47;;;;;;;23.24;55.72;101931.84;4954711;28;20134;-66
2023/06/15 08:31:53;;;;;;;8.95;4.28;;;;;;;23.52;55.86;101930.84;4961232;28;20042;-66
2023/06/15 08:34:19;;;;;;;8.60;4.55;;;;;;;23.83;53.79;101927.56;4967570;28;20176;-66
2023/06/15 08:36:46;;;;;;;6.28;3.88;;;;;;;24.19;50.50;101931.66;4968402;28;20043;-66
2023/06/15 08:39:13;;;;;;;10.63;3.83;;;;;;;24.56;46.21;101920.41;4963099;28;20051;-67
2023/06/15 08:41:39;;;;;;;9.93;3.80;;;;;;;24.92;47.12;101919.00;4966943;28;20055;-65
2023/06/15 08:44:07;;;;;;;6.40;3.80;;;;;;;25.26;47.40;101921.25;4939183;28;20081;-67
2023/06/15 08:46:33;;;;;;;10.65;3.65;;;;;;;25.63;46.25;101917.88;4969383;28;20050;-66
2023/06/15 08:49:02;;;;;;;5.93;3.20;;;;;;;26.04;44.11;101917.28;4961740;28;20662;-65
2023/06/15 08:51:29;;;;;;;6.57;3.63;;;;;;;26.38;44.18;101915.06;4967657;28;20074;-67
2023/06/15 08:53:56;;;;;;;8.03;3.93;;;;;;;26.69;43.86;101920.50;4965101;28;20137;-67
2023/06/15 08:56:23;;;;;;;10.10;4.20;;;;;;;27.02;42.78;101922.72;4960832;28;20054;-67
2023/06/15 08:58:49;;;;;;;8.45;3.72;;;;;;;27.36;43.08;101921.19;4963621;28;20101;-66
2023/06/15 09:01:23;;;;;;;7.18;3.60;;;;;;;27.65;41.61;101923.19;4959385;28;20129;-67
2023/06/15 09:03:54;;;;;;;6.57;3.63;;;;;;;27.98;40.93;101919.91;4966636;28;20566;-66
2023/06/15 09:06:22;;;;;;;9.00;3.47;;;;;;;28.26;41.04;101921.03;4945132;28;20054;-67
2023/06/15 09:08:51;;;;;;;5.70;3.22;;;;;;;28.43;40.42;101916.53;4965488;28;20042;-66
2023/06/15 09:11:18;;;;;;;12.15;3.58;;;;;;;28.69;40.49;101928.66;4959035;28;20325;-66
2023/06/15 09:13:45;;;;;;;7.05;3.40;;;;;;;28.96;39.81;101920.78;4946157;28;20554;-67
2023/06/15 09:16:12;;;;;;;7.40;3.13;;;;;;;29.12;38.83;101913.78;4964092;28;20082;-67
2023/06/15 09:18:51;;;;;;;4.93;2.77;;;;;;;29.41;39.07;101916.44;4959753;28;20571;-66
2023/06/15 09:21:20;;;;;;;7.47;3.00;;;;;;;29.64;39.08;101903.78;4968460;28;20422;-67
2023/06/15 09:23:47;;;;;;;6.32;3.03;;;;;;;29.77;37.40;101911.56;4942010;28;20051;-67
2023/06/15 09:26:24;;;;;;;3.78;2.78;;;;;;;29.89;36.98;101906.06;4972680;28;20451;-67
2023/06/15 09:28:55;;;;;;;4.80;2.70;;;;;;;30.01;36.03;101906.78;4945055;28;20108;-67
2023/06/15 09:31:33;;;;;;;6.60;2.85;;;;;;;29.94;35.55;101903.44;4950536;28;20475;-67
2023/06/15 09:34:04;;;;;;;6.00;3.08;;;;;;;30.17;37.35;101905.06;4964021;28;20810;-67
2023/06/15 09:36:44;;;;;;;8.40;3.28;;;;;;;30.35;35.40;101901.25;4952213;28;20629;-67
2023/06/15 09:39:12;;;;;;;5.40;3.33;;;;;;;30.48;36.54;101898.16;4966621;28;20051;-68
2023/06/15 09:42:02;;;;;;;6.93;3.10;;;;;;;30.59;35.71;101900.97;4963671;28;20062;-68
2023/06/15 09:44:29;;;;;;;5.15;2.85;;;;;;;30.69;35.66;101899.16;4965064;28;20526;-67
2023/06/15 09:47:00;;;;;;;6.43;2.85;;;;;;;30.86;35.73;101896.34;4944309;28;20180;-68
2023/06/15 09:49:27;;;;;;;7.05;3.03;;;;;;;31.00;35.35;101893.25;4960443;28;20043;-68
2023/06/15 09:51:55;;;;;;;9.18;3.30;;;;;;;31.12;34.90;101896.59;4956095;28;20062;-67
2023/06/15 09:54:24;;;;;;;9.68;3.42;;;;;;;31.08;34.54;101887.34;4968496;28;20244;-68
2023/06/15 09:56:52;;;;;;;7.68;2.90;;;;;;;31.29;35.40;101894.56;4968753;28;20843;-68
2023/06/15 09:59:20;;;;;;;6.95;2.97;;;;;;;31.39;33.67;101882.16;4956481;28;20051;-67
2023/06/15 10:01:48;;;;;;;5.53;3.22;;;;;;;31.60;34.63;101885.81;4963684;28;20057;-67
2023/06/15 10:04:19;;;;;;;5.35;3.47;;;;;;;31.73;34.79;101896.22;4938947;28;20054;-68
2023/06/15 10:06:50;;;;;;;6.60;2.97;;;;;;;31.86;34.67;101889.50;4968504;28;20121;-68
2023/06/15 10:09:24;;;;;;;8.57;3.38;;;;;;;32.02;33.50;101893.94;4962039;28;20092;-68
2023/06/15 10:11:55;;;;;;;5.43;3.17;;;;;;;32.11;33.19;101894.25;4964092;28;20046;-67
2023/06/15 10:14:29;;;;;;;3.35;2.78;;;;;;;32.27;34.88;101895.94;4961339;28;20082;-69
2023/06/15 10:17:02;;;;;;;3.40;2.70;;;;;;;32.21;33.83;101888.88;4941626;28;20066;-67
2023/06/15 10:19:32;;;;;;;4.28;3.00;;;;;;;32.33;33.08;101887.81;4958588;28;20091;-66
2023/06/15 10:21:59;;;;;;;5.60;2.90;;;;;;;32.45;33.01;101893.81;4964253;28;20524;-66
2023/06/15 10:24:28;;;;;;;8.20;3.50;;;;;;;32.59;32.56;101883.28;4953574;28;20047;-66
2023/06/15 10:26:56;;;;;;;7.65;3.50;;;;;;;32.65;32.15;101890.34;4959694;28;20054;-66
2023/06/15 10:30:11;;;;;;;4.05;2.63;;;;;;;32.87;31.81;101882.75;4965801;28;20047;-66
2023/06/15 10:32:59;;;;;;;7.20;2.95;;;;;;;33.01;31.99;101888.47;4954033;28;20050;-68
2023/06/15 10:35:45;;;;;;;7.00;3.30;;;;;;;33.18;32.04;101887.41;4966216;28;20051;-67
2023/06/15 10:38:28;;;;;;;11.55;3.25;;;;;;;33.21;31.19;101884.94;4956673;28;20050;-67
2023/06/15 10:40:55;;;;;;;4.40;2.97;;;;;;;33.31;31.57;101895.00;4964223;28;20098;-67
2023/06/15 10:43:25;;;;;;;4.68;2.80;;;;;;;33.29;30.97;101878.94;4937887;28;20055;-67
2023/06/15 10:45:52;;;;;;;8.05;3.10;;;;;;;33.05;30.76;101875.97;4962959;28;20496;-67
2023/06/15 10:48:27;;;;;;;8.27;2.80;;;;;;;33.04;31.74;101871.59;4970902;28;20058;-67
2023/06/15 10:51:07;;;;;;;5.63;3.20;;;;;;;33.21;30.92;101874.06;4944429;28;20280;-68
2023/06/15 10:53:45;;;;;;;6.00;2.88;;;;;;;33.40;30.72;101868.88;4966552;28;20057;-69
2023/06/15 10:56:17;;;;;;;4.35;3.05;;;;;;;33.74;31.04;101876.41;4937938;28;20610;-68
2023/06/15 10:59:07;;;;;;;5.95;3.78;;;;;;;33.94;30.78;101863.81;4958661;28;20047;-68
2023/06/15 11:01:34;;;;;;;6.93;3.20;;;;;;;34.26;31.62;101872.41;4957165;28;20062;-67
2023/06/15 11:04:29;;;;;;;6.70;3.17;;;;;;;34.40;30.29;101871.75;4967815;28;20106;-68
2023/06/15 11:06:57;;;;;;;6.10;3.33;;;;;;;34.21;30.52;101874.34;4961990;28;20061;-69
2023/06/15 11:09:35;;;;;;;5.80;2.78;;;;;;;33.78;30.41;101877.50;4963710;28;20130;-69
2023/06/15 11:12:31;;;;;;;6.13;3.33;;;;;;;33.90;30.49;101873.66;4956025;28;20057;-67
2023/06/15 11:15:00;;;;;;;6.17;2.70;;;;;;;33.82;29.85;101869.59;4960519;28;20133;-67
2023/06/15 11:17:27;;;;;;;6.22;3.10;;;;;;;33.65;30.21;101867.19;4962036;28;20371;-68
2023/06/15 11:19:55;;;;;;;6.45;3.20;;;;;;;33.70;30.40;101864.47;4947974;28;20054;-67
2023/06/15 11:22:25;;;;;;;3.38;2.80;;;;;;;33.88;30.52;101863.03;4966896;28;20503;-68
2023/06/15 11:24:55;;;;;;;5.75;3.15;;;;;;;34.07;29.92;101861.31;4953389;28;20057;-67
2023/06/15 11:27:22;;;;;;;7.22;3.08;;;;;;;34.21;30.17;101858.81;4961725;28;20134;-67
2023/06/15 11:29:55;;;;;;;;;;;;;;;34.57;30.07;101857.75;4959379;28;20057;-67
2023/06/15 11:32:26;;;;;;;5.95;3.10;;;;;;;34.72;29.45;101854.13;4966770;28;19926;-67
2023/06/15 11:35:00;;;;;;;5.85;2.97;;;;;;;34.72;29.71;101852.22;4963601;28;20042;-67